createdAt,value
2022-12-25T00:00:48.552Z,94.62
2022-12-25T00:03:47.041Z,94.67
2022-12-25T00:06:33.674Z,94.68
2022-12-25T00:09:20.373Z,94.69
2022-12-25T00:12:06.826Z,94.71
2022-12-25T00:14:53.058Z,94.74
2022-12-25T00:17:39.814Z,94.65
2022-12-25T00:20:26.239Z,94.63
2022-12-25T00:23:12.788Z,94.66
2022-12-25T00:25:59.611Z,94.76
2022-12-25T00:28:46.537Z,94.71
2022-12-25T00:31:34.779Z,94.74
2022-12-25T00:34:22.729Z,94.79
2022-12-25T00:37:14.256Z,94.76
2022-12-25T00:40:00.566Z,94.84
2022-12-25T00:42:49.410Z,94.89
2022-12-25T00:45:35.763Z,94.95
2022-12-25T00:48:22.228Z,94.89
2022-12-25T00:51:12.300Z,94.86
2022-12-25T00:53:59.241Z,94.85
2022-12-25T00:56:46.919Z,94.80
2022-12-25T00:59:34.192Z,94.78
2022-12-25T01:02:23.925Z,94.79
2022-12-25T01:05:10.717Z,94.82
2022-12-25T01:08:00.532Z,94.83
2022-12-25T01:10:54.197Z,94.85
2022-12-25T01:13:40.500Z,94.93
2022-12-25T01:16:27.635Z,95.04
2022-12-25T01:19:31.906Z,95.02
2022-12-25T01:22:32.370Z,95.08
2022-12-25T01:25:19.115Z,95.13
2022-12-25T01:28:11.211Z,94.98
2022-12-25T01:30:58.383Z,95.05
2022-12-25T01:33:45.543Z,94.93
2022-12-25T01:36:31.774Z,95.10
2022-12-25T01:39:19.145Z,95.19
2022-12-25T01:42:05.667Z,95.24
2022-12-25T01:44:52.065Z,95.23
2022-12-25T01:47:38.563Z,95.35
2022-12-25T01:50:28.864Z,95.37
2022-12-25T01:53:15.256Z,95.43
2022-12-25T01:56:08.133Z,95.46
2022-12-25T01:58:57.136Z,95.50
2022-12-25T02:01:44.265Z,95.47
2022-12-25T02:04:40.445Z,95.38
2022-12-25T02:07:29.567Z,95.42
2022-12-25T02:10:16.291Z,95.42
2022-12-25T02:13:03.958Z,95.41
2022-12-25T02:16:01.339Z,95.48
2022-12-25T02:19:01.531Z,95.48
2022-12-25T02:22:07.225Z,95.43
2022-12-25T02:25:12.711Z,95.45
2022-12-25T02:28:20.716Z,95.37
2022-12-25T02:31:10.468Z,95.39
2022-12-25T02:34:13.293Z,95.28
2022-12-25T02:37:02.894Z,95.32
2022-12-25T02:39:58.488Z,95.35
2022-12-25T02:43:03.745Z,95.36
2022-12-25T02:46:18.070Z,95.39
2022-12-25T02:49:28.966Z,95.45
2022-12-25T02:52:39.284Z,95.49
2022-12-25T02:55:51.548Z,95.35
2022-12-25T02:58:59.033Z,95.44
2022-12-25T03:02:05.035Z,95.56
2022-12-25T03:05:12.726Z,95.55
2022-12-25T03:08:03.583Z,95.66
2022-12-25T03:11:19.034Z,95.61
2022-12-25T03:14:26.801Z,95.68
2022-12-25T03:17:13.378Z,95.56
2022-12-25T03:20:20.119Z,95.53
2022-12-25T03:23:26.159Z,95.55
2022-12-25T03:26:31.798Z,95.45
2022-12-25T03:29:36.682Z,95.50
2022-12-25T03:32:43.761Z,95.57
2022-12-25T03:35:46.988Z,95.47
2022-12-25T03:39:27.703Z,95.39
2022-12-25T03:42:37.654Z,95.48
2022-12-25T03:46:04.727Z,95.37
2022-12-25T03:49:20.908Z,95.46
2022-12-25T03:52:28.349Z,95.45
2022-12-25T03:55:36.355Z,95.61
2022-12-25T03:58:44.232Z,95.59
2022-12-25T04:01:49.238Z,95.66
2022-12-25T04:04:54.431Z,95.63
2022-12-25T04:07:59.788Z,95.60
2022-12-25T04:11:05.140Z,95.53
2022-12-25T04:14:10.043Z,95.58
2022-12-25T04:17:15.220Z,95.60
2022-12-25T04:20:20.382Z,95.66
2022-12-25T04:23:25.598Z,95.63
2022-12-25T04:26:30.822Z,95.61
2022-12-25T04:29:35.704Z,95.63
2022-12-25T04:32:40.421Z,95.64
2022-12-25T04:35:45.673Z,95.71
2022-12-25T04:38:32.103Z,95.75
2022-12-25T04:41:18.639Z,95.73
2022-12-25T04:44:05.177Z,95.77
2022-12-25T04:46:51.600Z,95.68
2022-12-25T04:49:38.212Z,95.60
2022-12-25T04:52:25.069Z,95.62
2022-12-25T04:55:12.015Z,95.68
2022-12-25T04:57:58.391Z,95.62
2022-12-25T05:00:45.107Z,95.65
2022-12-25T05:03:32.384Z,95.60
2022-12-25T05:06:19.445Z,95.59
2022-12-25T05:09:06.069Z,95.70
2022-12-25T05:11:52.747Z,95.67
2022-12-25T05:25:39.787Z,95.35
2022-12-25T05:28:25.410Z,95.43
2022-12-25T05:31:11.077Z,95.32
2022-12-25T05:33:56.440Z,95.35
2022-12-25T05:36:41.570Z,95.37
2022-12-25T05:42:37.425Z,95.39
2022-12-25T05:45:22.818Z,95.37
2022-12-25T05:48:09.850Z,95.39
2022-12-25T05:50:54.718Z,95.44
2022-12-25T05:53:41.078Z,95.43
2022-12-25T05:56:26.773Z,95.49
2022-12-25T05:59:11.793Z,95.53
2022-12-25T06:01:57.417Z,95.49
2022-12-25T06:04:42.741Z,95.51
2022-12-25T06:07:28.125Z,95.39
2022-12-25T06:10:13.386Z,95.39
2022-12-25T06:12:58.717Z,95.48
2022-12-25T06:15:44.156Z,95.48
2022-12-25T06:18:29.290Z,95.41
2022-12-25T06:21:15.638Z,95.39
2022-12-25T06:24:01.081Z,95.52
2022-12-25T06:26:46.605Z,95.56
2022-12-25T06:29:31.828Z,95.49
2022-12-25T06:32:18.014Z,95.49
2022-12-25T06:35:03.371Z,95.45
2022-12-25T06:37:48.332Z,95.50
2022-12-25T06:40:34.315Z,95.53
2022-12-25T06:43:19.621Z,95.53
2022-12-25T06:46:07.476Z,95.57
2022-12-25T06:48:53.787Z,95.57
2022-12-25T06:51:40.654Z,95.46
2022-12-25T06:54:25.441Z,95.57
2022-12-25T06:57:10.667Z,95.58
2022-12-25T06:59:55.770Z,95.64
2022-12-25T07:02:46.796Z,95.65
2022-12-25T07:05:32.008Z,95.59
2022-12-25T07:08:19.340Z,95.64
2022-12-25T07:11:04.793Z,95.67
2022-12-25T07:13:49.988Z,95.70
2022-12-25T07:16:36.502Z,95.65
2022-12-25T07:19:21.797Z,95.64
2022-12-25T07:22:09.306Z,95.68
2022-12-25T07:24:54.866Z,95.69
2022-12-25T07:27:49.099Z,95.64
2022-12-25T07:30:34.211Z,95.53
2022-12-25T07:33:19.785Z,95.57
2022-12-25T07:36:05.342Z,95.53
2022-12-25T07:38:50.798Z,95.50
2022-12-25T07:41:36.000Z,95.63
2022-12-25T07:44:21.683Z,95.67
2022-12-25T07:47:06.973Z,95.66
2022-12-25T07:49:51.839Z,95.82
2022-12-25T07:52:43.286Z,95.98
2022-12-25T07:55:29.241Z,95.94
2022-12-25T07:58:18.572Z,95.89
2022-12-25T08:01:16.173Z,95.98
2022-12-25T08:04:02.265Z,96.01
2022-12-25T08:06:47.736Z,96.00
2022-12-25T08:09:34.873Z,96.08
2022-12-25T08:12:19.842Z,96.13
2022-12-25T08:15:08.166Z,96.20
2022-12-25T08:17:53.146Z,96.16
2022-12-25T08:20:39.006Z,96.02
2022-12-25T08:23:24.421Z,96.06
2022-12-25T08:26:16.340Z,96.00
2022-12-25T08:29:01.791Z,95.89
2022-12-25T08:31:47.018Z,95.88
2022-12-25T08:34:32.558Z,95.86
2022-12-25T08:37:17.652Z,95.87
2022-12-25T08:40:03.340Z,95.79
2022-12-25T08:42:48.649Z,95.76
2022-12-25T08:45:35.605Z,95.74
2022-12-25T08:48:21.213Z,95.69
2022-12-25T08:51:10.978Z,95.69
2022-12-25T08:53:59.200Z,95.61
2022-12-25T08:56:44.467Z,95.60
2022-12-25T08:59:35.639Z,95.53
2022-12-25T09:02:20.751Z,95.58
2022-12-25T09:05:07.195Z,95.52
2022-12-25T09:07:55.201Z,95.46
2022-12-25T09:10:41.109Z,95.41
2022-12-25T09:13:26.226Z,95.39
2022-12-25T09:16:14.469Z,95.37
2022-12-25T09:19:00.026Z,95.42
2022-12-25T09:21:45.294Z,95.33
2022-12-25T09:24:30.657Z,95.19
2022-12-25T09:27:15.825Z,95.24
2022-12-25T09:30:01.065Z,95.22
2022-12-25T09:32:46.753Z,95.24
2022-12-25T09:35:32.116Z,95.18
2022-12-25T09:38:17.498Z,95.25
2022-12-25T09:41:19.982Z,95.24
2022-12-25T09:44:28.217Z,95.29
2022-12-25T09:47:17.354Z,95.28
2022-12-25T09:50:20.607Z,95.07
2022-12-25T09:53:21.442Z,95.23
2022-12-25T09:56:19.445Z,95.25
2022-12-25T09:59:16.642Z,95.23
2022-12-25T10:02:23.298Z,95.26
2022-12-25T10:05:55.224Z,95.20
2022-12-25T10:09:02.666Z,95.11
2022-12-25T10:12:01.022Z,95.03
2022-12-25T10:15:15.202Z,94.93
2022-12-25T10:18:16.761Z,94.87
2022-12-25T10:21:11.049Z,94.77
2022-12-25T10:23:58.151Z,94.64
2022-12-25T10:26:44.669Z,94.50
2022-12-25T10:29:34.910Z,94.40
2022-12-25T10:32:21.128Z,94.24
2022-12-25T10:35:23.650Z,94.17
2022-12-25T10:38:15.519Z,94.10
2022-12-25T10:41:27.081Z,93.97
2022-12-25T10:44:21.134Z,93.89
2022-12-25T10:47:06.448Z,93.84
2022-12-25T10:49:52.346Z,93.81
2022-12-25T10:52:53.381Z,93.77
2022-12-25T10:55:38.928Z,93.67
2022-12-25T10:58:24.583Z,93.50
2022-12-25T11:01:11.500Z,93.41
2022-12-25T11:03:56.890Z,93.33
2022-12-25T11:06:42.853Z,93.20
2022-12-25T11:09:31.722Z,92.99
2022-12-25T11:12:19.497Z,92.75
2022-12-25T11:15:33.537Z,92.71
2022-12-25T11:18:28.098Z,92.66
2022-12-25T11:21:29.757Z,92.46
2022-12-25T11:24:21.851Z,92.42
2022-12-25T11:27:06.812Z,92.34
2022-12-25T11:29:54.263Z,92.22
2022-12-25T11:32:45.988Z,92.15
2022-12-25T11:35:42.362Z,92.12
2022-12-25T11:38:27.737Z,92.07
2022-12-25T11:41:19.748Z,91.95
2022-12-25T11:44:34.433Z,92.07
2022-12-25T11:47:49.548Z,92.29
2022-12-25T11:50:41.893Z,92.07
2022-12-25T11:53:44.593Z,91.73
2022-12-25T11:56:31.220Z,91.66
2022-12-25T11:59:34.800Z,91.59
2022-12-25T12:02:59.639Z,91.61
2022-12-25T12:05:58.390Z,91.65
2022-12-25T12:08:48.697Z,91.63
2022-12-25T12:11:45.918Z,91.65
2022-12-25T12:14:39.581Z,91.69
2022-12-25T12:17:26.803Z,91.69
2022-12-25T12:20:28.768Z,91.72
2022-12-25T12:23:16.978Z,91.78
2022-12-25T12:26:04.618Z,91.78
2022-12-25T12:28:54.420Z,91.83
2022-12-25T12:31:43.778Z,91.88
2022-12-25T12:34:48.110Z,91.89
2022-12-25T12:37:38.767Z,91.92
2022-12-25T12:40:36.881Z,91.98
2022-12-25T12:43:26.737Z,92.01
2022-12-25T12:46:19.185Z,92.02
2022-12-25T12:49:25.285Z,92.04
2022-12-25T12:52:25.350Z,92.05
2022-12-25T12:55:15.140Z,92.06
2022-12-25T12:58:04.677Z,92.02
2022-12-25T13:01:22.288Z,92.00
2022-12-25T13:04:22.669Z,92.04
2022-12-25T13:07:44.382Z,91.98
2022-12-25T13:10:37.213Z,91.98
2022-12-25T13:13:30.457Z,91.92
2022-12-25T13:16:25.393Z,91.89
2022-12-25T13:19:19.322Z,91.90
2022-12-25T13:22:06.809Z,91.86
2022-12-25T13:25:03.049Z,91.86
2022-12-25T13:27:59.584Z,91.87
2022-12-25T13:30:47.126Z,91.87
2022-12-25T13:33:35.075Z,91.85
2022-12-25T13:36:22.081Z,91.75
2022-12-25T13:47:14.178Z,91.96
2022-12-25T13:50:14.735Z,91.71
2022-12-25T13:53:13.547Z,91.14
2022-12-25T13:55:59.807Z,90.78
2022-12-25T13:58:48.281Z,90.92
2022-12-25T14:01:34.934Z,91.05
2022-12-25T14:04:24.237Z,91.46
2022-12-25T14:07:12.189Z,91.52
2022-12-25T14:10:02.044Z,91.69
2022-12-25T14:19:03.597Z,92.11
2022-12-25T14:22:13.872Z,92.13
2022-12-25T14:25:01.816Z,92.13
2022-12-25T14:27:56.174Z,92.14
2022-12-25T14:30:42.931Z,92.10
2022-12-25T14:33:37.013Z,92.11
2022-12-25T14:36:23.742Z,92.23
2022-12-25T14:39:30.783Z,92.42
2022-12-25T14:42:23.293Z,92.61
2022-12-25T14:45:35.660Z,92.67
2022-12-25T14:48:25.774Z,92.76
2022-12-25T14:51:17.629Z,92.73
2022-12-25T14:54:14.170Z,92.79
2022-12-25T14:57:00.856Z,92.98
2022-12-25T14:59:55.917Z,93.13
2022-12-25T15:02:46.315Z,93.31
2022-12-25T15:05:36.237Z,93.23
2022-12-25T15:08:24.158Z,93.32
2022-12-25T15:11:10.693Z,93.43
2022-12-25T15:13:58.184Z,93.59
2022-12-25T15:16:51.449Z,93.53
2022-12-25T15:19:38.976Z,93.57
2022-12-25T15:22:25.701Z,93.62
2022-12-25T15:25:14.627Z,93.67
2022-12-25T15:28:01.536Z,93.67
2022-12-25T15:30:49.837Z,93.64
2022-12-25T15:33:40.678Z,93.59
2022-12-25T15:36:30.742Z,93.37
2022-12-25T15:39:17.699Z,93.30
2022-12-25T15:42:13.078Z,93.32
2022-12-25T15:46:26.806Z,93.35
2022-12-25T15:49:14.630Z,93.20
2022-12-25T15:52:03.549Z,93.02
2022-12-25T15:54:50.279Z,93.16
2022-12-25T15:57:41.103Z,93.04
2022-12-25T16:00:27.696Z,93.16
2022-12-25T16:03:15.599Z,93.26
2022-12-25T16:06:04.186Z,93.36
2022-12-25T16:08:50.915Z,93.55
2022-12-25T16:11:37.870Z,93.57
2022-12-25T16:14:26.630Z,93.68
2022-12-25T16:17:15.734Z,93.87
2022-12-25T16:20:02.235Z,93.93
2022-12-25T16:22:48.814Z,93.88
2022-12-25T16:25:36.034Z,94.04
2022-12-25T16:28:22.593Z,94.11
2022-12-25T16:31:10.653Z,94.22
2022-12-25T16:33:57.320Z,94.14
2022-12-25T16:36:44.382Z,94.17
2022-12-25T16:39:31.808Z,94.27
2022-12-25T16:42:18.238Z,94.21
2022-12-25T16:45:05.343Z,94.15
2022-12-25T16:47:51.772Z,94.09
2022-12-25T16:50:39.594Z,94.07
2022-12-25T16:53:26.068Z,94.12
2022-12-25T16:56:20.564Z,93.98
2022-12-25T16:59:07.391Z,93.84
2022-12-25T17:01:53.860Z,93.84
2022-12-25T17:04:42.562Z,93.91
2022-12-25T17:07:35.857Z,94.03
2022-12-25T17:10:25.550Z,94.02
2022-12-25T17:13:11.861Z,94.05
2022-12-25T17:15:58.234Z,93.94
2022-12-25T17:18:45.258Z,94.00
2022-12-25T17:21:35.454Z,93.94
2022-12-25T17:24:22.279Z,93.99
2022-12-25T17:27:09.757Z,93.94
2022-12-25T17:31:50.894Z,94.03
2022-12-25T17:34:39.721Z,94.00
2022-12-25T17:37:26.024Z,93.99
2022-12-25T17:40:17.997Z,93.99
2022-12-25T17:43:04.696Z,94.17
2022-12-25T17:45:51.064Z,94.20
2022-12-25T17:48:37.574Z,94.31
2022-12-25T17:51:26.429Z,94.49
2022-12-25T17:54:13.435Z,94.56
2022-12-25T17:56:59.987Z,94.53
2022-12-25T17:59:50.604Z,94.64
2022-12-25T18:02:38.055Z,94.76
2022-12-25T18:05:24.508Z,94.66
2022-12-25T18:08:11.188Z,94.59
2022-12-25T18:11:06.220Z,94.55
2022-12-25T18:13:53.544Z,94.42
2022-12-25T18:16:43.404Z,94.34
2022-12-25T18:19:30.068Z,94.33
2022-12-25T18:22:17.036Z,94.24
2022-12-25T18:25:04.238Z,94.29
2022-12-25T18:27:53.091Z,94.42
2022-12-25T18:30:44.338Z,94.37
2022-12-25T18:33:31.303Z,94.36
2022-12-25T18:36:21.281Z,94.34
2022-12-25T18:39:07.805Z,94.24
2022-12-25T18:42:13.079Z,94.25
2022-12-25T18:45:04.386Z,94.32
2022-12-25T18:47:51.318Z,94.21
2022-12-25T18:50:40.063Z,94.33
2022-12-25T18:53:28.763Z,94.39
2022-12-25T19:02:35.780Z,94.57
2022-12-25T19:05:23.474Z,94.43
2022-12-25T19:08:10.387Z,94.39
2022-12-25T19:10:57.156Z,94.51
2022-12-25T19:13:44.442Z,94.52
2022-12-25T19:16:30.931Z,94.56
2022-12-25T19:19:19.003Z,94.60
2022-12-25T19:22:21.571Z,94.64
2022-12-25T19:25:08.441Z,94.72
2022-12-25T19:27:54.848Z,94.74
2022-12-25T19:30:41.254Z,94.85
2022-12-25T19:33:30.220Z,94.96
2022-12-25T19:36:17.950Z,95.00
2022-12-25T19:39:06.648Z,95.02
2022-12-25T19:41:53.236Z,95.08
2022-12-25T19:44:40.055Z,95.10
2022-12-25T19:47:27.507Z,94.97
2022-12-25T19:50:14.128Z,94.95
2022-12-25T19:53:00.842Z,95.12
2022-12-25T19:55:47.539Z,95.18
2022-12-25T19:58:34.389Z,95.08
2022-12-25T20:01:23.193Z,95.07
2022-12-25T20:04:10.717Z,95.07
2022-12-25T20:06:57.362Z,95.13
2022-12-25T20:09:46.563Z,95.23
2022-12-25T20:12:33.127Z,95.27
2022-12-25T20:15:20.124Z,95.34
2022-12-25T20:18:07.536Z,95.32
2022-12-25T20:21:02.140Z,95.40
2022-12-25T20:23:51.507Z,95.33
2022-12-25T20:26:38.938Z,95.28
2022-12-25T20:29:25.675Z,95.36
2022-12-25T20:32:12.617Z,95.34
2022-12-25T20:34:59.014Z,95.29
2022-12-25T20:37:45.895Z,95.29
2022-12-25T20:40:46.769Z,95.39
2022-12-25T20:43:45.117Z,95.44
2022-12-25T20:46:32.528Z,95.39
2022-12-25T20:49:19.284Z,95.35
2022-12-25T20:52:06.148Z,95.36
2022-12-25T20:54:52.683Z,95.41
2022-12-25T20:57:39.076Z,95.48
2022-12-25T21:00:25.912Z,95.56
2022-12-25T21:03:12.694Z,95.52
2022-12-25T21:06:01.105Z,95.62
2022-12-25T21:08:47.275Z,95.55
2022-12-25T21:11:34.172Z,95.50
2022-12-25T21:14:20.896Z,95.53
2022-12-25T21:17:07.581Z,95.68
2022-12-25T21:19:56.518Z,95.74
2022-12-25T21:22:43.139Z,95.75
2022-12-25T21:25:29.803Z,95.84
2022-12-25T21:28:16.938Z,95.92
2022-12-25T21:31:04.188Z,95.72
2022-12-25T21:33:51.457Z,95.70
2022-12-25T21:36:41.311Z,95.78
2022-12-25T21:39:28.109Z,95.77
2022-12-25T21:42:14.871Z,95.80
2022-12-25T21:45:01.550Z,95.77
2022-12-25T21:48:01.685Z,95.60
2022-12-25T21:51:08.517Z,95.63
2022-12-25T21:53:55.032Z,95.59
2022-12-25T21:56:45.555Z,95.52
2022-12-25T21:59:32.793Z,95.62
2022-12-25T22:02:19.636Z,95.62
2022-12-25T22:05:06.672Z,95.69
2022-12-25T22:07:53.095Z,95.80
2022-12-25T22:10:40.022Z,95.84
2022-12-25T22:13:46.801Z,95.87
2022-12-25T22:16:51.833Z,95.81
2022-12-25T22:19:43.163Z,95.75
2022-12-25T22:22:30.779Z,95.73
2022-12-25T22:25:19.800Z,95.75
2022-12-25T22:28:08.575Z,95.78
2022-12-25T22:30:55.532Z,95.64
2022-12-25T22:33:42.066Z,95.62
2022-12-25T22:36:28.763Z,95.57
2022-12-25T22:39:16.081Z,95.62
2022-12-25T22:42:02.801Z,95.55
2022-12-25T22:44:49.559Z,95.53
2022-12-25T22:47:36.157Z,95.60
2022-12-25T22:50:23.355Z,95.52
2022-12-25T22:53:10.049Z,95.52
2022-12-25T22:55:56.665Z,95.39
2022-12-25T22:58:43.647Z,95.34
2022-12-25T23:01:30.240Z,95.25
2022-12-25T23:04:17.709Z,95.23
2022-12-25T23:07:05.262Z,95.20
2022-12-25T23:09:51.786Z,95.22
2022-12-25T23:12:57.498Z,95.05
2022-12-25T23:15:46.316Z,95.10
2022-12-25T23:18:51.565Z,95.01
2022-12-25T23:21:57.129Z,94.81
2022-12-25T23:25:02.438Z,94.79
2022-12-25T23:27:49.119Z,94.61
2022-12-25T23:30:35.889Z,94.58
2022-12-25T23:33:22.616Z,94.46
2022-12-25T23:36:13.605Z,94.38
2022-12-25T23:39:06.641Z,94.54
2022-12-25T23:41:56.168Z,94.45
2022-12-25T23:44:44.483Z,94.43
2022-12-25T23:47:31.037Z,94.38
2022-12-25T23:50:18.273Z,94.29
2022-12-25T23:53:05.176Z,94.17
2022-12-25T23:55:55.805Z,94.19
2022-12-25T23:58:59.904Z,94.31
